Time;durP1;ratioP1;P1;durP2;ratioP2;P2;SDS_P1;SDS_P2;PMS_P1;PMS_P2;Temp;Humidity;BMP_temperature;BMP_pressure;BME280_temperature;BME280_humidity;BME280_pressure;Samples;Min_cycle;Max_cycle;Signal;HPM_P1;HPM_P2
2022/08/06 00:00:26;;;;;;;0.08;0.08;;;24.20;55.30;;;;;;4191830;28;20135;-69
2022/08/06 00:02:50;;;;;;;0.00;0.00;;;24.20;55.30;;;;;;4191053;28;20048;-69
2022/08/06 00:05:13;;;;;;;0.00;0.00;;;24.20;55.30;;;;;;4190460;28;20491;-69
2022/08/06 00:07:39;;;;;;;0.00;0.00;;;24.20;55.30;;;;;;4191997;28;20776;-69
2022/08/06 00:10:06;;;;;;;0.00;0.00;;;24.20;55.40;;;;;;4173305;28;20450;-69
2022/08/06 00:12:29;;;;;;;0.00;0.00;;;24.20;55.40;;;;;;4191322;28;20044;-69
2022/08/06 00:14:52;;;;;;;0.40;0.40;;;24.20;55.50;;;;;;4175133;28;20048;-68
2022/08/06 00:17:13;;;;;;;0.00;0.00;;;24.20;55.50;;;;;;4183879;28;20056;-68
2022/08/06 00:19:37;;;;;;;0.00;0.00;;;24.20;55.50;;;;;;4191613;28;20122;-68
2022/08/06 00:22:09;;;;;;;0.70;0.70;;;24.10;55.50;;;;;;4190503;28;20414;-69
2022/08/06 00:24:31;;;;;;;0.00;0.00;;;24.10;55.50;;;;;;4191265;28;20048;-69
2022/08/06 00:26:53;;;;;;;0.00;0.00;;;24.10;55.50;;;;;;4174774;28;20148;-68
2022/08/06 00:29:26;;;;;;;0.00;0.00;;;24.10;55.60;;;;;;4180893;28;20048;-69
2022/08/06 00:31:53;;;;;;;0.00;0.00;;;24.10;55.70;;;;;;4190201;28;20469;-70
2022/08/06 00:34:15;;;;;;;0.00;0.00;;;24.10;55.70;;;;;;4192199;28;20052;-69
2022/08/06 00:36:38;;;;;;;8.10;1.00;;;24.10;55.70;;;;;;4194649;28;20414;-70
2022/08/06 00:39:03;;;;;;;0.00;0.00;;;24.10;55.70;;;;;;4189320;28;20055;-69
2022/08/06 00:41:28;;;;;;;0.00;0.00;;;24.10;55.70;;;;;;4177741;28;20055;-70
2022/08/06 00:43:51;;;;;;;0.00;0.00;;;24.10;55.80;;;;;;4178382;28;20041;-70
2022/08/06 00:46:13;;;;;;;0.00;0.00;;;24.10;55.80;;;;;;4177677;28;20127;-69
2022/08/06 00:48:37;;;;;;;0.00;0.00;;;24.10;55.80;;;;;;4193036;28;20070;-69
2022/08/06 00:51:14;;;;;;;0.00;0.00;;;24.10;55.80;;;;;;4192802;28;20170;-69
2022/08/06 00:53:40;;;;;;;0.00;0.00;;;24.10;55.80;;;;;;4193707;28;20135;-69
2022/08/06 00:56:05;;;;;;;0.00;0.00;;;24.00;55.80;;;;;;4177635;28;20056;-70
2022/08/06 00:58:29;;;;;;;0.00;0.00;;;24.00;55.80;;;;;;4176264;28;20737;-70
2022/08/06 01:01:01;;;;;;;0.00;0.00;;;24.10;55.80;;;;;;4177432;28;20056;-69
2022/08/06 01:03:23;;;;;;;0.00;0.00;;;24.00;56.30;;;;;;4193709;28;20468;-69
2022/08/06 01:05:48;;;;;;;0.00;0.00;;;24.00;55.80;;;;;;4193671;28;20063;-69
2022/08/06 01:08:25;;;;;;;0.00;0.00;;;24.00;55.90;;;;;;4193564;28;20552;-69
2022/08/06 01:10:49;;;;;;;0.00;0.00;;;24.00;55.90;;;;;;4193480;28;20090;-68
2022/08/06 01:13:11;;;;;;;0.00;0.00;;;24.00;55.90;;;;;;4192277;28;20078;-62
2022/08/06 01:15:52;;;;;;;0.00;0.00;;;23.90;55.90;;;;;;4193026;28;20070;-62
2022/08/06 01:18:34;;;;;;;0.00;0.00;;;24.00;56.00;;;;;;4193360;28;20135;-62
2022/08/06 01:21:10;;;;;;;0.00;0.00;;;24.00;56.00;;;;;;4193701;28;20051;-61
2022/08/06 01:23:57;;;;;;;0.00;0.00;;;23.90;56.00;;;;;;4193623;28;20055;-61
2022/08/06 01:26:35;;;;;;;0.10;0.10;;;23.90;56.00;;;;;;4193310;28;20847;-61
2022/08/06 01:29:03;;;;;;;0.10;0.10;;;23.90;56.00;;;;;;4193390;28;20064;-61
2022/08/06 01:31:31;;;;;;;0.00;0.00;;;23.90;56.00;;;;;;4193497;28;20553;-61
2022/08/06 01:34:01;;;;;;;0.00;0.00;;;23.90;56.00;;;;;;4192552;28;20050;-62
2022/08/06 01:36:32;;;;;;;0.00;0.00;;;23.90;56.10;;;;;;4193384;28;20131;-69
2022/08/06 01:38:57;;;;;;;0.00;0.00;;;23.90;56.10;;;;;;4181487;28;20052;-69
2022/08/06 01:43:53;;;;;;;0.00;0.00;;;23.90;56.10;;;;;;4191670;27;20875;-68
2022/08/06 01:46:27;;;;;;;0.00;0.00;;;23.80;56.10;;;;;;4189909;28;20052;-69
2022/08/06 01:48:49;;;;;;;0.00;0.00;;;23.90;56.20;;;;;;4189849;27;20052;-68
2022/08/06 01:51:11;;;;;;;0.00;0.00;;;23.90;56.20;;;;;;4206792;27;20448;-70
2022/08/06 01:53:41;;;;;;;0.00;0.00;;;23.80;56.10;;;;;;4206072;27;20045;-69
2022/08/06 01:56:10;;;;;;;0.10;0.10;;;23.80;56.20;;;;;;4205586;27;20509;-69
2022/08/06 01:58:35;;;;;;;0.73;0.73;;;23.80;56.20;;;;;;4206342;28;20074;-68
2022/08/06 02:01:02;;;;;;;0.47;0.47;;;23.80;56.20;;;;;;4206021;28;20056;-66
2022/08/06 02:03:29;;;;;;;0.00;0.00;;;23.80;56.20;;;;;;4183232;28;20048;-68
2022/08/06 02:06:02;;;;;;;0.00;0.00;;;23.80;56.20;;;;;;4186541;27;20052;-69
2022/08/06 02:08:30;;;;;;;0.00;0.00;;;23.80;56.30;;;;;;4205788;27;20040;-69
2022/08/06 02:10:58;;;;;;;0.00;0.00;;;23.80;56.30;;;;;;4204472;27;20059;-69
2022/08/06 02:13:23;;;;;;;0.00;0.00;;;23.80;56.30;;;;;;4190438;28;20053;-68
2022/08/06 02:15:45;;;;;;;0.00;0.00;;;23.80;56.40;;;;;;4188983;28;20048;-68
2022/08/06 02:18:21;;;;;;;0.00;0.00;;;23.80;56.40;;;;;;4189018;28;20086;-68
2022/08/06 02:20:57;;;;;;;0.00;0.00;;;23.70;56.30;;;;;;4199182;28;20059;-68
2022/08/06 02:23:23;;;;;;;0.00;0.00;;;23.70;56.40;;;;;;4172611;28;20138;-68
2022/08/06 02:25:48;;;;;;;0.00;0.00;;;23.70;57.10;;;;;;4172959;28;20041;-69
2022/08/06 02:28:16;;;;;;;0.00;0.00;;;23.70;56.50;;;;;;4156351;28;20068;-69
2022/08/06 02:30:45;;;;;;;0.10;0.10;;;23.70;56.50;;;;;;4154760;28;20052;-69
2022/08/06 02:33:11;;;;;;;0.00;0.00;;;23.70;56.50;;;;;;4174378;28;20086;-68
2022/08/06 02:35:45;;;;;;;0.00;0.00;;;23.70;56.50;;;;;;4189129;28;20218;-69
2022/08/06 02:38:14;;;;;;;0.55;0.55;;;23.70;56.50;;;;;;4185410;28;20365;-68
2022/08/06 02:40:43;;;;;;;0.00;0.00;;;23.70;56.50;;;;;;4205432;27;20056;-69
2022/08/06 02:43:09;;;;;;;0.00;0.00;;;23.70;56.50;;;;;;4205571;27;20053;-70
2022/08/06 02:45:36;;;;;;;0.00;0.00;;;23.70;56.50;;;;;;4204485;27;21304;-69
2022/08/06 02:48:08;;;;;;;0.00;0.00;;;23.60;56.50;;;;;;4204328;27;20056;-69
2022/08/06 02:50:33;;;;;;;;;;;23.60;56.60;;;;;;4205893;28;20047;-69
2022/08/06 02:53:02;;;;;;;0.00;0.00;;;23.60;56.60;;;;;;4205279;28;19924;-69
2022/08/06 02:55:30;;;;;;;0.00;0.00;;;23.60;56.60;;;;;;4185135;28;22766;-68
2022/08/06 02:57:58;;;;;;;0.00;0.00;;;23.60;56.70;;;;;;4161540;28;20045;-69
2022/08/06 03:00:22;;;;;;;0.05;0.05;;;23.60;56.70;;;;;;4159706;28;20049;-69
2022/08/06 03:02:48;;;;;;;0.00;0.00;;;23.60;56.70;;;;;;4161383;28;20141;-69
2022/08/06 03:05:15;;;;;;;0.00;0.00;;;23.60;56.70;;;;;;4160284;28;20140;-69
2022/08/06 03:07:40;;;;;;;0.00;0.00;;;23.60;56.70;;;;;;4160575;28;20503;-69
2022/08/06 03:10:04;;;;;;;0.00;0.00;;;23.60;56.70;;;;;;4159479;28;20588;-67
2022/08/06 03:12:36;;;;;;;0.00;0.00;;;23.50;56.70;;;;;;4183095;28;20071;-69
2022/08/06 03:15:01;;;;;;;0.00;0.00;;;23.60;56.80;;;;;;4194252;28;20581;-69
2022/08/06 03:17:29;;;;;;;0.00;0.00;;;23.60;56.80;;;;;;4159880;28;20469;-69
2022/08/06 03:19:53;;;;;;;0.00;0.00;;;23.50;56.80;;;;;;4160040;28;20071;-68
2022/08/06 03:22:20;;;;;;;0.00;0.00;;;23.50;56.80;;;;;;4173503;28;20061;-68
2022/08/06 03:24:58;;;;;;;0.00;0.00;;;23.50;56.80;;;;;;4176657;28;20126;-68
2022/08/06 03:27:23;;;;;;;0.00;0.00;;;23.50;56.80;;;;;;4177234;28;20151;-68
2022/08/06 03:29:45;;;;;;;0.00;0.00;;;23.50;56.90;;;;;;4168197;28;20040;-68
2022/08/06 03:32:08;;;;;;;0.00;0.00;;;23.50;56.90;;;;;;4192517;28;20523;-68
2022/08/06 03:34:35;;;;;;;0.00;0.00;;;23.50;56.90;;;;;;4194014;28;20419;-69
2022/08/06 03:36:58;;;;;;;0.00;0.00;;;23.50;57.00;;;;;;4193325;28;20135;-67
2022/08/06 03:39:22;;;;;;;0.00;0.00;;;23.50;57.00;;;;;;4194032;28;20048;-68
2022/08/06 03:41:45;;;;;;;0.00;0.00;;;23.50;57.10;;;;;;4183104;28;20049;-68
2022/08/06 03:44:29;;;;;;;0.00;0.00;;;23.50;57.10;;;;;;4176474;28;20048;-68
2022/08/06 03:46:56;;;;;;;0.00;0.00;;;23.50;57.10;;;;;;4176206;28;20468;-69
2022/08/06 03:49:23;;;;;;;0.00;0.00;;;23.50;57.10;;;;;;4176937;28;20488;-68
2022/08/06 03:51:50;;;;;;;0.00;0.00;;;23.40;57.10;;;;;;4176784;28;20464;-68
2022/08/06 03:54:15;;;;;;;0.00;0.00;;;23.40;57.10;;;;;;4176525;28;20064;-68
2022/08/06 03:56:42;;;;;;;0.47;0.47;;;23.40;57.10;;;;;;4175385;28;20058;-68
2022/08/06 03:59:09;;;;;;;0.00;0.00;;;23.40;57.10;;;;;;4176624;28;20061;-68
2022/08/06 04:01:36;;;;;;;0.05;0.05;;;23.40;57.10;;;;;;4178635;28;20044;-69
2022/08/06 04:04:05;;;;;;;0.00;0.00;;;23.40;57.20;;;;;;4193220;28;20178;-68
2022/08/06 04:06:37;;;;;;;0.00;0.00;;;23.40;57.20;;;;;;4175040;28;20037;-68
2022/08/06 04:09:01;;;;;;;0.00;0.00;;;23.40;57.20;;;;;;4175920;28;20133;-68
2022/08/06 04:11:24;;;;;;;0.00;0.00;;;23.40;57.20;;;;;;4176462;28;20381;-69
2022/08/06 04:14:07;;;;;;;0.00;0.00;;;23.40;57.30;;;;;;4176104;28;20498;-69
2022/08/06 04:16:33;;;;;;;0.00;0.00;;;23.30;57.30;;;;;;4176343;28;20511;-69
2022/08/06 04:18:56;;;;;;;0.00;0.00;;;23.40;57.30;;;;;;4176453;28;20414;-69
2022/08/06 04:21:22;;;;;;;0.10;0.10;;;23.30;57.30;;;;;;4176266;28;20451;-68
2022/08/06 04:24:04;;;;;;;0.00;0.00;;;23.30;57.30;;;;;;4191249;28;20048;-69
2022/08/06 04:26:28;;;;;;;14.32;1.25;;;23.30;57.30;;;;;;4192339;28;20121;-68
2022/08/06 04:28:53;;;;;;;0.00;0.00;;;23.30;57.30;;;;;;4192781;28;20692;-69
2022/08/06 04:31:20;;;;;;;0.00;0.00;;;23.30;57.30;;;;;;4192550;28;20422;-69
2022/08/06 04:33:48;;;;;;;0.00;0.00;;;23.30;57.30;;;;;;4180379;28;20080;-68
2022/08/06 04:36:13;;;;;;;0.00;0.00;;;23.30;57.30;;;;;;4175739;28;20087;-69
2022/08/06 04:38:39;;;;;;;0.00;0.00;;;23.30;57.40;;;;;;4175640;28;20625;-68
2022/08/06 04:41:02;;;;;;;0.00;0.00;;;23.30;57.30;;;;;;4176375;28;20098;-69
2022/08/06 04:43:31;;;;;;;0.00;0.00;;;23.30;57.30;;;;;;4175826;28;20064;-69
2022/08/06 04:46:00;;;;;;;0.00;0.00;;;23.30;57.30;;;;;;4174495;28;20056;-69
2022/08/06 04:48:36;;;;;;;0.00;0.00;;;23.30;57.30;;;;;;4174411;28;20049;-69
2022/08/06 04:51:04;;;;;;;0.05;0.05;;;23.30;57.30;;;;;;4175827;28;20072;-68
2022/08/06 04:53:26;;;;;;;0.00;0.00;;;23.30;57.30;;;;;;4175567;28;20354;-68
2022/08/06 04:55:51;;;;;;;0.00;0.00;;;23.30;57.40;;;;;;4175995;28;20059;-68
2022/08/06 04:58:21;;;;;;;0.00;0.00;;;23.30;57.40;;;;;;4175638;28;20045;-69
2022/08/06 05:00:48;;;;;;;0.00;0.00;;;23.30;57.40;;;;;;4188406;28;20052;-69
2022/08/06 05:03:22;;;;;;;0.00;0.00;;;23.30;57.40;;;;;;4192310;28;20131;-69
2022/08/06 05:06:10;;;;;;;0.00;0.00;;;23.30;57.40;;;;;;4190985;28;20056;-69
2022/08/06 05:08:39;;;;;;;0.00;0.00;;;23.30;57.30;;;;;;4186338;28;20515;-69
2022/08/06 05:11:05;;;;;;;0.00;0.00;;;23.30;57.30;;;;;;4175457;28;20045;-69
2022/08/06 05:13:31;;;;;;;0.00;0.00;;;23.30;57.30;;;;;;4174080;28;20068;-68
2022/08/06 05:15:59;;;;;;;0.00;0.00;;;23.30;57.30;;;;;;4175933;28;20045;-70
2022/08/06 05:18:25;;;;;;;0.00;0.00;;;23.40;57.30;;;;;;4173806;28;20059;-69
2022/08/06 05:21:10;;;;;;;0.00;0.00;;;23.30;57.40;;;;;;4175680;28;20557;-69
2022/08/06 05:23:37;;;;;;;0.30;0.30;;;23.30;57.40;;;;;;4175056;28;20064;-68
2022/08/06 05:26:00;;;;;;;0.00;0.00;;;23.40;57.40;;;;;;4175411;28;20056;-69
2022/08/06 05:28:22;;;;;;;0.00;0.00;;;23.30;57.40;;;;;;4174908;28;20057;-69
2022/08/06 05:30:48;;;;;;;0.15;0.15;;;23.40;57.50;;;;;;4175119;28;20048;-68
2022/08/06 05:33:10;;;;;;;0.00;0.00;;;23.30;57.50;;;;;;4175147;28;20128;-67
2022/08/06 05:35:32;;;;;;;0.00;0.00;;;23.30;57.90;;;;;;4174556;28;20412;-67
2022/08/06 05:38:02;;;;;;;0.00;0.00;;;23.30;57.90;;;;;;4173644;28;20494;-68
2022/08/06 05:40:25;;;;;;;0.00;0.00;;;23.30;57.90;;;;;;4175251;28;20091;-67
2022/08/06 05:42:55;;;;;;;0.00;0.00;;;23.30;57.90;;;;;;4158325;28;20553;-67
2022/08/06 05:45:19;;;;;;;0.00;0.00;;;23.30;57.90;;;;;;4159078;28;20052;-67
2022/08/06 05:47:45;;;;;;;0.00;0.00;;;23.30;57.90;;;;;;4158555;28;20140;-68
2022/08/06 05:50:21;;;;;;;0.00;0.00;;;23.30;57.80;;;;;;4171079;28;20045;-67
2022/08/06 05:52:50;;;;;;;0.00;0.00;;;23.30;57.80;;;;;;4170684;28;20040;-67
2022/08/06 05:55:18;;;;;;;0.00;0.00;;;23.30;57.90;;;;;;4191441;28;20059;-67
2022/08/06 05:57:55;;;;;;;0.00;0.00;;;23.30;57.80;;;;;;4191603;28;20118;-67
2022/08/06 06:00:20;;;;;;;0.00;0.00;;;23.30;57.80;;;;;;4191380;28;20045;-67
2022/08/06 06:02:55;;;;;;;0.10;0.10;;;23.30;57.80;;;;;;4191560;28;20059;-68
2022/08/06 06:05:18;;;;;;;0.00;0.00;;;23.20;57.60;;;;;;4183430;28;20053;-67
2022/08/06 06:08:01;;;;;;;0.00;0.00;;;23.30;57.70;;;;;;4176066;28;20400;-67
2022/08/06 06:10:33;;;;;;;0.00;0.00;;;23.30;57.70;;;;;;4174996;28;20045;-67
2022/08/06 06:12:57;;;;;;;0.05;0.05;;;23.30;57.50;;;;;;4172889;28;20152;-68
2022/08/06 06:15:20;;;;;;;0.00;0.00;;;23.30;57.50;;;;;;4175238;28;20500;-67
2022/08/06 06:18:13;;;;;;;0.00;0.00;;;23.30;57.50;;;;;;4175075;28;20437;-67
2022/08/06 06:21:04;;;;;;;0.00;0.00;;;23.30;57.40;;;;;;4169455;28;20072;-67
2022/08/06 06:23:45;;;;;;;0.00;0.00;;;23.30;57.30;;;;;;4175084;28;20567;-69
2022/08/06 06:26:17;;;;;;;0.00;0.00;;;23.30;57.40;;;;;;4174959;28;20048;-67
2022/08/06 06:29:13;;;;;;;0.20;0.20;;;23.30;57.30;;;;;;4167945;28;20126;-67
2022/08/06 06:31:44;;;;;;;0.00;0.00;;;23.30;57.30;;;;;;4177645;28;20699;-67
2022/08/06 06:34:25;;;;;;;0.00;0.00;;;23.20;57.30;;;;;;4160265;28;20045;-67
2022/08/06 06:36:54;;;;;;;0.00;0.00;;;23.20;57.50;;;;;;4166989;28;20052;-67
2022/08/06 06:39:26;;;;;;;0.20;0.20;;;23.20;57.50;;;;;;4186736;28;20460;-67
2022/08/06 06:41:56;;;;;;;0.00;0.00;;;23.20;57.70;;;;;;4161179;28;20114;-67
2022/08/06 06:44:29;;;;;;;0.73;0.35;;;23.20;57.80;;;;;;4168015;28;20052;-67
2022/08/06 06:47:18;;;;;;;0.45;0.45;;;23.10;57.80;;;;;;4177027;28;20048;-67
2022/08/06 06:49:45;;;;;;;0.32;0.20;;;23.20;58.00;;;;;;4176793;28;20511;-67
2022/08/06 06:52:25;;;;;;;0.00;0.00;;;23.20;58.10;;;;;;4171360;28;20457;-67
2022/08/06 06:54:57;;;;;;;0.00;0.00;;;23.10;58.10;;;;;;4193836;28;20044;-67
2022/08/06 06:57:30;;;;;;;0.10;0.10;;;23.20;58.20;;;;;;4194022;28;20059;-67
2022/08/06 07:00:06;;;;;;;0.80;0.80;;;23.10;58.10;;;;;;4192248;28;20087;-68
2022/08/06 07:02:51;;;;;;;3.72;1.75;;;23.10;58.20;;;;;;4177358;28;20131;-68
2022/08/06 07:05:14;;;;;;;0.00;0.00;;;23.20;58.30;;;;;;4176803;28;20064;-67
2022/08/06 07:07:41;;;;;;;0.05;0.05;;;23.20;58.30;;;;;;4178099;28;20408;-68
2022/08/06 07:10:13;;;;;;;0.00;0.00;;;23.20;58.40;;;;;;4175649;28;20044;-67
2022/08/06 07:12:37;;;;;;;0.00;0.00;;;23.20;58.40;;;;;;4177016;28;20045;-68
2022/08/06 07:15:02;;;;;;;0.30;0.30;;;23.30;58.40;;;;;;4176470;28;20055;-67
2022/08/06 07:17:26;;;;;;;0.57;0.52;;;23.30;59.00;;;;;;4177055;28;20480;-67
2022/08/06 07:20:11;;;;;;;0.00;0.00;;;23.30;58.20;;;;;;4177703;28;20048;-65
2022/08/06 07:22:34;;;;;;;0.00;0.00;;;23.40;58.10;;;;;;4176481;28;20049;-65
2022/08/06 07:25:00;;;;;;;0.03;0.03;;;23.40;57.90;;;;;;4176940;28;20075;-65
2022/08/06 07:27:23;;;;;;;0.00;0.00;;;23.50;57.70;;;;;;4177090;28;20501;-65
2022/08/06 07:29:48;;;;;;;0.00;0.00;;;23.60;57.60;;;;;;4177873;28;20423;-65
2022/08/06 07:32:21;;;;;;;0.00;0.00;;;23.60;57.30;;;;;;4175444;28;20072;-65
2022/08/06 07:34:53;;;;;;;0.00;0.00;;;23.70;57.10;;;;;;4175469;28;20048;-64
2022/08/06 07:37:20;;;;;;;0.00;0.00;;;23.70;56.90;;;;;;4172791;28;20460;-65
2022/08/06 07:39:44;;;;;;;0.00;0.00;;;23.80;56.80;;;;;;4177256;28;20071;-65
2022/08/06 07:42:10;;;;;;;0.00;0.00;;;23.80;56.70;;;;;;4175849;28;20063;-64
2022/08/06 07:44:37;;;;;;;0.00;0.00;;;23.80;56.70;;;;;;4175402;28;20396;-65
2022/08/06 07:47:23;;;;;;;0.00;0.00;;;23.90;56.60;;;;;;4160591;28;20469;-65
2022/08/06 07:49:55;;;;;;;0.00;0.00;;;23.90;56.50;;;;;;4168894;28;20045;-65
2022/08/06 07:52:22;;;;;;;0.20;0.20;;;23.90;56.50;;;;;;4176892;28;20428;-65
2022/08/06 07:54:48;;;;;;;0.00;0.00;;;23.90;56.30;;;;;;4175870;28;20124;-64
2022/08/06 07:57:11;;;;;;;0.00;0.00;;;23.90;56.10;;;;;;4175491;28;20067;-67
2022/08/06 07:59:36;;;;;;;0.00;0.00;;;24.00;56.00;;;;;;4180577;28;20060;-67
2022/08/06 08:01:59;;;;;;;0.00;0.00;;;24.00;55.90;;;;;;4193533;28;20438;-67
2022/08/06 08:07:14;;;;;;;0.65;0.65;;;24.10;55.70;;;;;;4193162;28;20059;-68
2022/08/06 08:09:37;;;;;;;0.15;0.15;;;24.10;55.50;;;;;;4193036;28;20496;-67
2022/08/06 08:12:21;;;;;;;0.00;0.00;;;24.10;55.30;;;;;;4142088;28;20065;-68
2022/08/06 08:14:49;;;;;;;0.00;0.00;;;24.20;55.10;;;;;;4159904;28;20064;-67
2022/08/06 08:17:12;;;;;;;0.22;0.22;;;24.10;54.80;;;;;;4160433;28;20067;-67
2022/08/06 08:19:35;;;;;;;0.00;0.00;;;24.10;54.40;;;;;;4160391;28;20049;-66
2022/08/06 08:21:58;;;;;;;0.00;0.00;;;24.10;54.40;;;;;;4176918;28;20131;-66
2022/08/06 08:24:20;;;;;;;0.00;0.00;;;24.10;55.10;;;;;;4175858;28;20049;-66
2022/08/06 08:26:43;;;;;;;0.00;0.00;;;24.00;54.20;;;;;;4157669;28;20075;-66
2022/08/06 08:29:25;;;;;;;0.00;0.00;;;24.00;54.30;;;;;;4159896;28;20361;-65
2022/08/06 08:31:51;;;;;;;0.00;0.00;;;24.00;54.30;;;;;;4170019;28;20381;-66
2022/08/06 08:34:21;;;;;;;0.00;0.00;;;23.90;54.60;;;;;;4159694;28;20057;-65
2022/08/06 08:36:45;;;;;;;0.00;0.00;;;23.90;54.90;;;;;;4143871;28;20107;-65
2022/08/06 08:39:07;;;;;;;0.00;0.00;;;23.90;55.00;;;;;;4146155;28;20482;-65
2022/08/06 08:41:34;;;;;;;0.00;0.00;;;23.90;54.90;;;;;;4160343;28;20052;-64
2022/08/06 08:44:11;;;;;;;0.00;0.00;;;23.90;54.60;;;;;;4156662;28;20107;-69
2022/08/06 08:46:35;;;;;;;0.00;0.00;;;23.90;54.70;;;;;;4163393;28;20510;-69
2022/08/06 08:49:02;;;;;;;0.00;0.00;;;23.90;55.00;;;;;;4176227;28;20502;-69
2022/08/06 08:51:27;;;;;;;0.10;0.10;;;23.90;54.80;;;;;;4177288;28;20140;-69
2022/08/06 08:53:58;;;;;;;0.08;0.08;;;23.90;54.90;;;;;;4176243;28;20439;-69
2022/08/06 08:56:20;;;;;;;;;;;23.90;54.30;;;;;;4188889;28;20487;-68
2022/08/06 08:59:04;;;;;;;0.57;0.57;;;23.90;53.70;;;;;;4192345;28;20405;-69
2022/08/06 09:01:47;;;;;;;0.00;0.00;;;23.90;54.10;;;;;;4192507;28;20055;-69
2022/08/06 09:04:14;;;;;;;0.00;0.00;;;23.90;54.60;;;;;;4190288;28;20055;-69
2022/08/06 09:06:38;;;;;;;0.00;0.00;;;23.90;54.60;;;;;;4175954;28;20139;-69
2022/08/06 09:09:04;;;;;;;0.85;0.85;;;23.80;54.80;;;;;;4158737;28;20072;-68
2022/08/06 09:11:27;;;;;;;0.00;0.00;;;23.80;55.00;;;;;;4159228;28;20463;-69
2022/08/06 09:14:10;;;;;;;2.08;1.13;;;23.80;55.10;;;;;;4159430;28;20144;-69
2022/08/06 09:16:33;;;;;;;0.20;0.20;;;23.80;55.20;;;;;;4157201;28;20051;-70
2022/08/06 09:18:55;;;;;;;0.00;0.00;;;23.80;55.30;;;;;;4175608;28;20049;-69
2022/08/06 09:21:17;;;;;;;0.00;0.00;;;23.80;55.40;;;;;;4174154;28;20073;-68
2022/08/06 09:23:40;;;;;;;0.00;0.00;;;23.80;55.40;;;;;;4175391;28;20175;-69
2022/08/06 09:26:11;;;;;;;0.00;0.00;;;23.80;55.40;;;;;;4175583;28;20052;-70
2022/08/06 09:28:36;;;;;;;3.20;1.17;;;23.80;55.40;;;;;;4175354;28;20056;-68
2022/08/06 09:31:01;;;;;;;0.20;0.20;;;23.90;55.40;;;;;;4175921;28;20098;-69
2022/08/06 09:33:23;;;;;;;0.00;0.00;;;23.90;55.30;;;;;;4175292;28;20079;-68
2022/08/06 09:36:06;;;;;;;0.00;0.00;;;23.90;55.10;;;;;;4175608;28;20059;-69
2022/08/06 09:38:30;;;;;;;0.00;0.00;;;23.90;54.60;;;;;;4175203;28;20458;-69
2022/08/06 09:41:13;;;;;;;0.00;0.00;;;23.90;54.90;;;;;;4175409;28;20444;-69
2022/08/06 09:43:37;;;;;;;0.03;0.03;;;23.90;55.00;;;;;;4175624;28;20041;-69
2022/08/06 09:46:36;;;;;;;0.00;0.00;;;23.90;55.10;;;;;;4175197;28;20049;-69
2022/08/06 09:49:00;;;;;;;0.45;0.45;;;23.90;55.20;;;;;;4174775;28;20776;-69
2022/08/06 09:51:43;;;;;;;0.00;0.00;;;23.90;55.20;;;;;;4174055;28;20073;-69
2022/08/06 09:54:15;;;;;;;0.00;0.00;;;23.90;55.30;;;;;;4175312;28;20067;-69
2022/08/06 09:56:45;;;;;;;0.00;0.00;;;23.90;55.20;;;;;;4174592;28;20049;-69
2022/08/06 09:59:08;;;;;;;0.00;0.00;;;23.90;55.20;;;;;;4175021;28;20119;-69
2022/08/06 10:01:38;;;;;;;0.00;0.00;;;23.90;55.30;;;;;;4175714;28;20576;-69
2022/08/06 10:04:00;;;;;;;0.00;0.00;;;23.90;55.30;;;;;;4175567;28;20126;-69
2022/08/06 10:06:32;;;;;;;0.00;0.00;;;24.00;55.30;;;;;;4178467;28;20048;-69
2022/08/06 10:09:08;;;;;;;0.00;0.00;;;24.00;55.30;;;;;;4178506;28;20045;-69
2022/08/06 10:11:35;;;;;;;0.00;0.00;;;24.10;55.30;;;;;;4178222;28;20122;-69
2022/08/06 10:14:03;;;;;;;0.00;0.00;;;24.10;55.20;;;;;;4178339;28;20063;-69
2022/08/06 10:16:28;;;;;;;0.10;0.10;;;24.10;55.10;;;;;;4178710;28;20409;-70
2022/08/06 10:18:50;;;;;;;0.20;0.20;;;24.10;54.60;;;;;;4178194;28;20053;-69
2022/08/06 10:21:22;;;;;;;0.00;0.00;;;24.10;54.80;;;;;;4177909;28;20068;-69
2022/08/06 10:23:49;;;;;;;0.08;0.08;;;24.10;54.80;;;;;;4178340;28;20454;-69
2022/08/06 10:26:14;;;;;;;0.25;0.25;;;24.10;54.70;;;;;;4177984;28;20055;-69
2022/08/06 10:28:37;;;;;;;3.85;1.45;;;24.10;54.70;;;;;;4177084;28;20040;-69
2022/08/06 10:31:03;;;;;;;0.00;0.00;;;24.10;54.30;;;;;;4177820;28;20053;-69
2022/08/06 10:33:29;;;;;;;0.00;0.00;;;24.20;54.50;;;;;;4178238;28;20132;-69
2022/08/06 10:35:58;;;;;;;0.00;0.00;;;24.20;54.30;;;;;;4177898;28;20052;-69
2022/08/06 10:38:27;;;;;;;0.10;0.10;;;24.30;53.80;;;;;;4177884;28;20071;-69
2022/08/06 10:40:52;;;;;;;0.00;0.00;;;24.30;54.00;;;;;;4177735;28;20055;-69
2022/08/06 10:43:19;;;;;;;0.32;0.32;;;24.30;54.00;;;;;;4178219;28;20083;-69
2022/08/06 10:45:42;;;;;;;0.00;0.00;;;24.30;54.00;;;;;;4176684;28;20142;-69
2022/08/06 10:48:12;;;;;;;0.00;0.00;;;24.40;53.80;;;;;;4176889;28;20057;-68
2022/08/06 10:50:48;;;;;;;0.13;0.13;;;24.40;53.20;;;;;;4176068;28;20091;-69
2022/08/06 10:53:16;;;;;;;0.00;0.00;;;24.40;52.80;;;;;;4177750;28;20072;-68
2022/08/06 10:55:41;;;;;;;0.00;0.00;;;24.40;53.00;;;;;;4178196;28;20083;-69
2022/08/06 10:58:05;;;;;;;0.00;0.00;;;24.40;52.90;;;;;;4177786;28;20408;-69
2022/08/06 11:00:28;;;;;;;0.00;0.00;;;24.50;52.90;;;;;;4177816;28;20049;-69
2022/08/06 11:02:57;;;;;;;0.10;0.10;;;24.50;52.70;;;;;;4177228;28;20408;-69
2022/08/06 11:05:24;;;;;;;0.00;0.00;;;24.50;52.50;;;;;;4177386;28;20495;-69
2022/08/06 11:08:08;;;;;;;0.47;0.47;;;24.50;52.50;;;;;;4177025;28;20037;-69
2022/08/06 11:10:48;;;;;;;0.00;0.00;;;24.50;52.50;;;;;;4177304;28;20411;-69
2022/08/06 11:13:20;;;;;;;0.00;0.00;;;24.50;52.60;;;;;;4177022;28;20063;-69
2022/08/06 11:15:43;;;;;;;0.00;0.00;;;24.50;52.30;;;;;;4193643;28;20052;-69
2022/08/06 11:18:08;;;;;;;0.00;0.00;;;24.50;51.50;;;;;;4193497;28;20139;-69
2022/08/06 11:20:42;;;;;;;3.83;3.00;;;24.50;51.70;;;;;;4169747;28;20113;-68
2022/08/06 11:23:06;;;;;;;0.00;0.00;;;24.50;52.00;;;;;;4192661;28;20125;-68
2022/08/06 11:25:39;;;;;;;0.00;0.00;;;24.50;52.00;;;;;;4193840;28;20044;-69
2022/08/06 11:28:04;;;;;;;0.00;0.00;;;24.50;52.00;;;;;;4193725;28;20411;-68
2022/08/06 11:30:38;;;;;;;0.00;0.00;;;24.60;52.70;;;;;;4194427;28;20863;-69
2022/08/06 11:33:00;;;;;;;0.43;0.43;;;24.60;52.20;;;;;;4193611;28;20048;-68
2022/08/06 11:35:43;;;;;;;0.00;0.00;;;24.60;51.90;;;;;;4189308;28;20450;-69
2022/08/06 11:38:14;;;;;;;0.00;0.00;;;24.60;51.80;;;;;;4175874;28;20053;-69
2022/08/06 11:41:01;;;;;;;0.00;0.00;;;24.70;51.70;;;;;;4160553;28;20050;-69
2022/08/06 11:44:05;;;;;;;0.17;0.17;;;24.70;52.50;;;;;;4159018;28;20143;-70
2022/08/06 11:46:29;;;;;;;0.00;0.00;;;24.70;50.90;;;;;;4125538;28;20576;-69
2022/08/06 11:49:22;;;;;;;0.00;0.00;;;24.80;51.50;;;;;;4171982;28;20057;-68
2022/08/06 11:51:46;;;;;;;0.00;0.00;;;24.70;51.40;;;;;;4160454;28;20080;-69
2022/08/06 11:54:16;;;;;;;0.00;0.00;;;24.70;51.40;;;;;;4193470;28;20495;-69
2022/08/06 11:57:18;;;;;;;0.00;0.00;;;24.70;51.20;;;;;;4193542;28;20395;-69
2022/08/06 12:00:03;;;;;;;0.00;0.00;;;24.70;51.10;;;;;;4193415;28;20074;-68
2022/08/06 12:02:53;;;;;;;0.00;0.00;;;24.70;51.40;;;;;;4193322;28;20051;-68
2022/08/06 12:05:44;;;;;;;0.00;0.00;;;24.70;51.20;;;;;;4193654;28;20052;-68
2022/08/06 12:08:25;;;;;;;0.00;0.00;;;24.70;51.40;;;;;;4185748;28;20067;-69
2022/08/06 12:11:27;;;;;;;0.00;0.00;;;24.70;51.40;;;;;;4176817;28;20102;-69
2022/08/06 12:13:49;;;;;;;0.00;0.00;;;24.80;51.50;;;;;;4176646;28;20045;-69
2022/08/06 12:16:36;;;;;;;0.57;0.45;;;24.80;51.40;;;;;;4176825;28;20506;-68
2022/08/06 12:18:58;;;;;;;0.00;0.00;;;24.80;51.40;;;;;;4160341;28;20071;-68
2022/08/06 12:21:21;;;;;;;0.00;0.00;;;24.80;51.10;;;;;;4175586;28;20057;-68
2022/08/06 12:23:49;;;;;;;0.00;0.00;;;24.90;51.20;;;;;;4158688;28;20056;-69
2022/08/06 12:26:16;;;;;;;0.00;0.00;;;24.90;51.20;;;;;;4142337;28;20056;-69
2022/08/06 12:28:54;;;;;;;0.00;0.00;;;24.90;51.30;;;;;;4158720;28;20565;-70
2022/08/06 12:31:29;;;;;;;0.00;0.00;;;24.90;51.40;;;;;;4159816;28;20060;-69
2022/08/06 12:33:57;;;;;;;0.00;0.00;;;25.00;51.40;;;;;;4159493;28;20053;-69
2022/08/06 12:36:19;;;;;;;0.00;0.00;;;25.00;51.40;;;;;;4159636;28;20076;-69
2022/08/06 12:38:56;;;;;;;0.00;0.00;;;25.00;49.90;;;;;;4158459;28;20440;-69
2022/08/06 12:41:19;;;;;;;0.47;0.47;;;25.00;50.30;;;;;;4167847;28;20049;-69
2022/08/06 12:44:01;;;;;;;0.00;0.00;;;25.00;50.70;;;;;;4175980;28;20554;-69
2022/08/06 12:46:25;;;;;;;0.00;0.00;;;25.00;50.20;;;;;;4174251;28;20435;-68
2022/08/06 12:48:51;;;;;;;0.00;0.00;;;25.00;49.90;;;;;;4173452;28;20044;-69
2022/08/06 12:51:14;;;;;;;0.00;0.00;;;25.10;49.90;;;;;;4174548;28;20044;-69
2022/08/06 12:53:40;;;;;;;0.00;0.00;;;25.00;50.30;;;;;;4175773;28;20353;-69
2022/08/06 12:56:05;;;;;;;0.00;0.00;;;25.10;50.60;;;;;;4175746;28;20127;-69
2022/08/06 12:58:34;;;;;;;0.00;0.00;;;25.10;50.60;;;;;;4175923;28;20041;-69
2022/08/06 13:01:02;;;;;;;0.00;0.00;;;25.10;50.10;;;;;;4176154;28;20051;-69
2022/08/06 13:03:26;;;;;;;0.00;0.00;;;25.10;50.40;;;;;;4174794;28;20132;-69